createdAt,value
2023-04-26T00:13:51.107Z,200
2023-04-26T00:28:53.091Z,240
2023-04-26T00:43:55.171Z,320
2023-04-26T00:58:57.874Z,260
2023-04-26T01:13:59.624Z,190
2023-04-26T01:29:01.341Z,30
2023-04-26T01:44:03.054Z,20
2023-04-26T01:59:04.755Z,20
2023-04-26T02:14:06.452Z,10
2023-04-26T02:29:08.228Z,10
2023-04-26T02:44:09.984Z,0
2023-04-26T02:59:11.771Z,0
2023-04-26T03:14:13.470Z,0
2023-04-26T03:29:15.230Z,0
2023-04-26T03:44:16.997Z,0
2023-04-26T03:59:18.782Z,0
2023-04-26T04:14:20.535Z,0
2023-04-26T04:29:22.255Z,0
2023-04-26T04:44:24.061Z,0
2023-04-26T04:59:26.353Z,0
2023-04-26T05:14:28.084Z,0
2023-04-26T05:29:29.860Z,0
2023-04-26T05:44:31.581Z,0
2023-04-26T05:59:33.318Z,0
2023-04-26T06:14:35.092Z,0
2023-04-26T06:29:36.824Z,0
2023-04-26T06:44:38.588Z,0
2023-04-26T06:59:40.295Z,0
2023-04-26T07:14:42.039Z,0
2023-04-26T07:29:43.800Z,0
2023-04-26T07:44:45.490Z,0
2023-04-26T07:59:47.278Z,0
2023-04-26T08:14:49.052Z,0
2023-04-26T08:29:50.767Z,0
2023-04-26T08:44:52.535Z,0
2023-04-26T08:59:54.288Z,0
2023-04-26T09:14:56.025Z,0
2023-04-26T09:29:57.843Z,0
2023-04-26T09:44:59.537Z,0
2023-04-26T10:00:01.283Z,0
2023-04-26T10:15:03.048Z,0
2023-04-26T10:30:04.834Z,0
2023-04-26T10:45:06.627Z,0
2023-04-26T11:00:08.352Z,0
2023-04-26T11:15:10.122Z,0
2023-04-26T11:30:12.002Z,0
2023-04-26T11:45:13.736Z,0
2023-04-26T12:00:15.480Z,0
2023-04-26T12:15:17.199Z,0
2023-04-26T12:30:18.989Z,0
2023-04-26T12:45:20.725Z,0
2023-04-26T13:00:22.521Z,0
2023-04-26T13:15:24.226Z,0
2023-04-26T13:30:26.005Z,10
2023-04-26T13:45:27.727Z,10
2023-04-26T14:00:29.506Z,10
2023-04-26T14:15:31.242Z,10
2023-04-26T14:30:32.998Z,10
2023-04-26T14:45:43.903Z,10
2023-04-26T15:00:46.480Z,20
2023-04-26T15:15:48.165Z,20
2023-04-26T15:30:50.013Z,20
2023-04-26T15:45:51.762Z,140
2023-04-26T16:00:53.553Z,40
2023-04-26T16:15:55.414Z,30
2023-04-26T16:30:57.215Z,40
2023-04-26T16:45:59.194Z,40
2023-04-26T17:01:01.077Z,20
2023-04-26T17:16:02.837Z,10
2023-04-26T17:31:04.568Z,40
2023-04-26T17:46:06.309Z,40
2023-04-26T18:01:08.149Z,30
2023-04-26T18:16:09.880Z,30
2023-04-26T18:31:11.629Z,40
2023-04-26T18:46:13.479Z,30
2023-04-26T19:01:15.264Z,40
2023-04-26T19:16:17.095Z,70
2023-04-26T19:31:18.945Z,110
2023-04-26T19:46:20.741Z,100
2023-04-26T20:01:22.634Z,120
2023-04-26T20:16:24.446Z,140
2023-04-26T20:31:26.229Z,50
2023-04-26T20:46:28.149Z,170
2023-04-26T21:01:30.053Z,120
2023-04-26T21:16:31.928Z,80
2023-04-26T21:31:33.682Z,80
2023-04-26T21:46:35.469Z,100
2023-04-26T22:01:37.222Z,110
2023-04-26T22:16:39.030Z,70
2023-04-26T22:31:40.809Z,40
2023-04-26T22:46:42.651Z,50
2023-04-26T23:01:44.616Z,40
2023-04-26T23:16:46.374Z,140
2023-04-26T23:31:48.271Z,170
2023-04-26T23:46:50.112Z,130
